Time;durP1;ratioP1;P1;durP2;ratioP2;P2;SDS_P1;SDS_P2;PMS_P1;PMS_P2;Temp;Humidity;BMP_temperature;BMP_pressure;BME280_temperature;BME280_humidity;BME280_pressure;Samples;Min_cycle;Max_cycle;Signal;HPM_P1;HPM_P2
2022/08/13 00:02:14;;;;;;;;;;;16.80;62.00;;;;;;5033892;28;20377;-71
2022/08/13 00:04:44;;;;;;;;;;;16.90;62.50;;;;;;5033208;28;19913;-71
2022/08/13 00:07:10;;;;;;;;;;;16.80;62.30;;;;;;5033475;28;19913;-71
2022/08/13 00:09:38;;;;;;;;;;;16.80;62.70;;;;;;5033174;28;19919;-71
2022/08/13 00:14:50;;;;;;;;;;;16.70;63.00;;;;;;5032750;28;19917;-71
2022/08/13 00:17:17;;;;;;;;;;;16.60;63.30;;;;;;5032520;28;19914;-71
2022/08/13 00:19:45;;;;;;;;;;;16.40;63.90;;;;;;5032819;28;19909;-71
2022/08/13 00:22:12;;;;;;;;;;;16.20;64.70;;;;;;5033235;28;19915;-71
2022/08/13 00:24:38;;;;;;;;;;;16.10;65.30;;;;;;5032499;28;19913;-71
2022/08/13 00:27:05;;;;;;;;;;;16.10;65.90;;;;;;5033280;28;19917;-71
2022/08/13 00:29:31;;;;;;;;;;;16.20;65.70;;;;;;5031167;28;20270;-71
2022/08/13 00:31:57;;;;;;;;;;;16.20;65.50;;;;;;5033047;28;19928;-71
2022/08/13 00:34:23;;;;;;;;;;;16.20;66.10;;;;;;5032890;28;20286;-70
2022/08/13 00:36:49;;;;;;;;;;;16.00;66.50;;;;;;5032256;28;20313;-70
2022/08/13 00:39:15;;;;;;;;;;;15.90;67.70;;;;;;5032748;28;19917;-70
2022/08/13 00:41:42;;;;;;;;;;;15.80;70.80;;;;;;5032047;28;19914;-71
2022/08/13 00:44:09;;;;;;;;;;;15.70;68.80;;;;;;5032732;28;19917;-71
2022/08/13 00:46:36;;;;;;;;;;;15.60;69.30;;;;;;5032424;28;19924;-72
2022/08/13 00:49:03;;;;;;;;;;;15.60;69.90;;;;;;5032727;28;19913;-71
2022/08/13 00:51:30;;;;;;;;;;;15.50;71.10;;;;;;5032533;28;19909;-71
2022/08/13 00:53:58;;;;;;;;;;;15.60;71.30;;;;;;5031564;28;19921;-72
2022/08/13 00:56:24;;;;;;;;;;;15.70;70.40;;;;;;5032618;28;19913;-71
2022/08/13 00:58:50;;;;;;;;;;;15.70;70.30;;;;;;5031997;28;20161;-72
2022/08/13 01:01:18;;;;;;;;;;;15.80;69.80;;;;;;5032479;28;19936;-72
2022/08/13 01:03:44;;;;;;;;;;;15.90;70.20;;;;;;5032032;28;19913;-71
2022/08/13 01:06:10;;;;;;;;;;;15.90;70.30;;;;;;5032649;28;19913;-72
2022/08/13 01:08:40;;;;;;;;;;;16.00;70.10;;;;;;5032102;28;19909;-72
2022/08/13 01:11:07;;;;;;;;;;;16.00;69.30;;;;;;5032274;28;19921;-72
2022/08/13 01:13:34;;;;;;;;;;;16.10;69.00;;;;;;5031837;28;19932;-72
2022/08/13 01:16:01;;;;;;;;;;;16.10;69.10;;;;;;5031910;28;19917;-71
2022/08/13 01:18:27;;;;;;;;;;;16.00;69.30;;;;;;5031981;28;19913;-71
2022/08/13 01:21:02;;;;;;;;;;;16.00;69.50;;;;;;5031936;28;19913;-71
2022/08/13 01:23:29;;;;;;;;;;;16.00;69.70;;;;;;5032377;28;20016;-71
2022/08/13 01:25:56;;;;;;;;;;;16.10;69.60;;;;;;5031817;28;19913;-72
2022/08/13 01:28:23;;;;;;;;;;;16.00;69.60;;;;;;5032430;28;20424;-71
2022/08/13 01:30:52;;;;;;;;;;;16.00;70.50;;;;;;5036043;28;19913;-72
2022/08/13 01:33:35;;;;;;;;;;;15.90;70.50;;;;;;5036380;28;19928;-71
2022/08/13 01:36:30;;;;;;;;;;;15.90;70.80;;;;;;5043379;28;19920;-71
2022/08/13 01:39:04;;;;;;;;;;;15.90;71.10;;;;;;5035396;28;19920;-71
2022/08/13 01:41:33;;;;;;;;;;;15.70;71.40;;;;;;5036368;28;19920;-72
2022/08/13 01:44:04;;;;;;;;;;;15.50;72.60;;;;;;5035982;28;20269;-71
2022/08/13 01:52:04;;;;;;;;;;;15.40;73.80;;;;;;5036356;28;20274;-71
2022/08/13 01:54:35;;;;;;;;;;;15.40;74.40;;;;;;5036170;28;19913;-71
2022/08/13 01:57:04;;;;;;;;;;;15.30;74.80;;;;;;5035892;28;19920;-71
2022/08/13 01:59:34;;;;;;;;;;;15.30;75.20;;;;;;5036105;28;19920;-71
2022/08/13 02:02:01;;;;;;;;;;;15.20;75.70;;;;;;5036076;28;19924;-71
2022/08/13 02:04:28;;;;;;;;;;;15.30;76.50;;;;;;5035605;28;19913;-71
2022/08/13 02:06:54;;;;;;;;;;;15.20;76.00;;;;;;5035456;28;19916;-71
2022/08/13 02:09:23;;;;;;;;;;;15.20;76.20;;;;;;5035850;28;19913;-71
2022/08/13 02:11:49;;;;;;;;;;;15.10;76.50;;;;;;5034347;28;19985;-71
2022/08/13 02:14:16;;;;;;;;;;;15.00;77.20;;;;;;5035867;28;20020;-71
2022/08/13 02:16:42;;;;;;;;;;;15.00;77.50;;;;;;5034921;28;19920;-71
2022/08/13 02:19:08;;;;;;;;;;;15.00;78.10;;;;;;5035619;28;19917;-71
2022/08/13 02:21:36;;;;;;;;;;;14.90;78.50;;;;;;5035754;28;19920;-71
2022/08/13 02:24:03;;;;;;;;;;;14.90;78.90;;;;;;5035703;28;19920;-71
2022/08/13 02:26:32;;;;;;;;;;;14.80;79.20;;;;;;5033915;28;19913;-71
2022/08/13 02:28:59;;;;;;;;;;;14.80;79.70;;;;;;5034470;28;19936;-71
2022/08/13 02:31:26;;;;;;;;;;;14.70;80.50;;;;;;5035064;28;19940;-71
2022/08/13 02:33:52;;;;;;;;;;;14.70;80.90;;;;;;5034787;28;19932;-71
2022/08/13 02:36:20;;;;;;;;;;;14.70;81.20;;;;;;5035095;28;20385;-71
2022/08/13 02:38:54;;;;;;;;;;;14.60;81.80;;;;;;5034807;28;19913;-71
2022/08/13 02:41:40;;;;;;;;;;;14.60;81.70;;;;;;5034683;28;20016;-71
2022/08/13 02:44:08;;;;;;;;;;;14.50;82.50;;;;;;5033631;28;19924;-72
2022/08/13 02:46:34;;;;;;;;;;;14.40;84.20;;;;;;5034937;28;19913;-71
2022/08/13 02:49:01;;;;;;;;;;;14.30;86.00;;;;;;5034583;28;19917;-71
2022/08/13 02:51:28;;;;;;;;;;;14.30;86.30;;;;;;5035104;28;19909;-71
2022/08/13 02:53:54;;;;;;;;;;;14.30;86.70;;;;;;5034167;28;19917;-71
2022/08/13 02:56:20;;;;;;;;;;;14.20;86.30;;;;;;5034878;28;19968;-71
2022/08/13 02:58:46;;;;;;;;;;;14.20;87.40;;;;;;5033998;28;19917;-71
2022/08/13 03:01:14;;;;;;;;;;;14.20;87.50;;;;;;5034393;28;19909;-71
2022/08/13 03:03:40;;;;;;;;;;;14.10;89.20;;;;;;5034092;28;19921;-72
2022/08/13 03:06:08;;;;;;;;;;;14.00;90.00;;;;;;5034869;28;19917;-71
2022/08/13 03:08:35;;;;;;;;;;;14.10;89.60;;;;;;5034734;28;19920;-71
2022/08/13 03:11:02;;;;;;;;;;;14.10;90.30;;;;;;5033857;28;19920;-71
2022/08/13 03:13:31;;;;;;;;;;;14.00;90.60;;;;;;5034396;28;19932;-71
2022/08/13 03:15:57;;;;;;;;;;;14.00;90.30;;;;;;5033872;28;19920;-71
2022/08/13 03:18:23;;;;;;;;;;;14.00;90.90;;;;;;5034366;28;19913;-71
2022/08/13 03:20:50;;;;;;;;;;;14.10;90.20;;;;;;5034003;28;19913;-71
2022/08/13 03:23:16;;;;;;;;;;;14.20;90.00;;;;;;5034312;28;19913;-71
2022/08/13 03:25:42;;;;;;;;;;;14.30;89.60;;;;;;5033996;28;19936;-72
2022/08/13 03:28:08;;;;;;;;;;;14.30;89.70;;;;;;5034775;28;19920;-71
2022/08/13 03:30:34;;;;;;;;;;;14.20;90.00;;;;;;5034638;28;19909;-71
2022/08/13 03:33:11;;;;;;;;;;;14.20;89.70;;;;;;5033449;28;20304;-71
2022/08/13 03:35:38;;;;;;;;;;;14.20;89.70;;;;;;5034313;28;19936;-71
2022/08/13 03:38:05;;;;;;;;;;;14.20;89.60;;;;;;5033558;28;19914;-71
2022/08/13 03:43:16;;;;;;;;;;;14.00;90.30;;;;;;5034007;28;19921;-71
2022/08/13 03:45:44;;;;;;;;;;;13.90;91.00;;;;;;5033377;28;20274;-72
2022/08/13 03:48:13;;;;;;;;;;;13.80;91.40;;;;;;5034310;28;19936;-71
2022/08/13 03:50:40;;;;;;;;;;;13.80;91.40;;;;;;5033769;28;19916;-71
2022/08/13 03:53:06;;;;;;;;;;;13.80;91.70;;;;;;5032071;28;19921;-71
2022/08/13 03:55:33;;;;;;;;;;;13.60;92.40;;;;;;5033803;28;19920;-72
2022/08/13 03:58:00;;;;;;;;;;;13.60;92.50;;;;;;5032948;28;19910;-72
2022/08/13 04:00:28;;;;;;;;;;;13.70;92.40;;;;;;5033826;28;19924;-72
2022/08/13 04:02:54;;;;;;;;;;;13.70;92.30;;;;;;5032873;28;19909;-72
2022/08/13 04:05:22;;;;;;;;;;;13.70;92.30;;;;;;5033406;28;19913;-72
2022/08/13 04:07:51;;;;;;;;;;;13.60;93.00;;;;;;5033121;28;19939;-72
2022/08/13 04:10:18;;;;;;;;;;;13.60;92.80;;;;;;5033357;28;19913;-72
2022/08/13 04:12:45;;;;;;;;;;;13.70;92.50;;;;;;5032478;28;19921;-72
2022/08/13 04:15:11;;;;;;;;;;;13.60;92.40;;;;;;5033482;28;20381;-72
2022/08/13 04:17:37;;;;;;;;;;;13.60;93.50;;;;;;5033303;28;19920;-72
2022/08/13 04:20:09;;;;;;;;;;;13.60;93.20;;;;;;5032979;28;19917;-72
2022/08/13 04:22:36;;;;;;;;;;;13.60;93.10;;;;;;5033474;28;20335;-72
2022/08/13 04:25:04;;;;;;;;;;;13.50;93.30;;;;;;5032443;28;19961;-72
2022/08/13 04:27:32;;;;;;;;;;;13.50;93.30;;;;;;5033287;28;19936;-72
2022/08/13 04:29:58;;;;;;;;;;;13.50;93.30;;;;;;5032414;28;19913;-72
2022/08/13 04:32:24;;;;;;;;;;;13.60;93.20;;;;;;5032941;28;19913;-72
2022/08/13 04:34:50;;;;;;;;;;;13.50;93.20;;;;;;5032613;28;20278;-72
2022/08/13 04:37:17;;;;;;;;;;;13.50;93.30;;;;;;5032367;28;19910;-72
2022/08/13 04:39:43;;;;;;;;;;;13.60;93.60;;;;;;5032840;28;20255;-72
2022/08/13 04:42:11;;;;;;;;;;;13.50;93.60;;;;;;5032642;28;19940;-72
2022/08/13 04:44:37;;;;;;;;;;;13.50;93.40;;;;;;5032737;28;19918;-72
2022/08/13 04:47:04;;;;;;;;;;;13.50;93.50;;;;;;5032074;28;19913;-72
2022/08/13 04:49:30;;;;;;;;;;;13.60;93.70;;;;;;5032949;28;19914;-72
2022/08/13 04:51:57;;;;;;;;;;;14.00;92.80;;;;;;5032011;28;19909;-72
2022/08/13 04:54:23;;;;;;;;;;;14.30;91.50;;;;;;5032621;28;20416;-71
2022/08/13 04:56:48;;;;;;;;;;;14.40;91.20;;;;;;5031920;28;19909;-69
2022/08/13 04:59:14;;;;;;;;;;;14.60;91.20;;;;;;5032821;28;19959;-70
2022/08/13 05:01:41;;;;;;;;;;;15.40;88.30;;;;;;5032509;28;19913;-70
2022/08/13 05:04:07;;;;;;;;;;;16.40;83.90;;;;;;5031569;28;19909;-70
2022/08/13 05:06:33;;;;;;;;;;;18.00;75.20;;;;;;5032306;28;20255;-71
2022/08/13 05:09:01;;;;;;;;;;;19.10;68.70;;;;;;5031797;28;20008;-71
2022/08/13 05:11:27;;;;;;;;;;;20.10;64.10;;;;;;5032223;28;19909;-71
2022/08/13 05:13:53;;;;;;;;;;;20.70;62.50;;;;;;5031703;28;20438;-71
2022/08/13 05:16:19;;;;;;;;;;;21.70;59.00;;;;;;5032565;28;20274;-71
2022/08/13 05:18:50;;;;;;;;;;;21.40;56.80;;;;;;5032318;28;19920;-71
2022/08/13 05:21:16;;;;;;;;;;;20.80;57.80;;;;;;5032693;28;20020;-71
2022/08/13 05:23:42;;;;;;;;;;;21.10;57.60;;;;;;5032325;28;19920;-71
2022/08/13 05:26:10;;;;;;;;;;;21.10;56.90;;;;;;5031522;28;19975;-71
2022/08/13 05:28:37;;;;;;;;;;;21.20;57.20;;;;;;5032088;28;19924;-71
2022/08/13 05:31:03;;;;;;;;;;;21.40;57.10;;;;;;5031618;28;19916;-71
2022/08/13 05:33:29;;;;;;;;;;;22.10;56.20;;;;;;5033255;28;19921;-71
2022/08/13 05:35:57;;;;;;;;;;;22.90;54.10;;;;;;5031479;28;19917;-71
2022/08/13 05:38:25;;;;;;;;;;;23.40;53.90;;;;;;5032051;28;19914;-71
2022/08/13 05:40:51;;;;;;;;;;;23.40;53.00;;;;;;5031622;28;20358;-72
2022/08/13 05:43:19;;;;;;;;;;;23.60;52.70;;;;;;5031899;28;19918;-72
2022/08/13 05:45:49;;;;;;;;;;;23.10;53.60;;;;;;5031957;28;19917;-71
2022/08/13 05:48:15;;;;;;;;;;;22.80;53.90;;;;;;5031913;28;20350;-71
2022/08/13 05:50:42;;;;;;;;;;;22.80;54.20;;;;;;5031931;28;20270;-71
2022/08/13 05:53:09;;;;;;;;;;;22.80;54.20;;;;;;5031307;28;20129;-71
2022/08/13 05:55:38;;;;;;;;;;;23.10;54.30;;;;;;5032161;28;19924;-71
2022/08/13 05:58:05;;;;;;;;;;;24.20;51.70;;;;;;5031817;28;19909;-71
2022/08/13 06:03:25;;;;;;;;;;;25.10;49.90;;;;;;5032505;28;19917;-71
2022/08/13 06:05:53;;;;;;;;;;;24.30;50.60;;;;;;5031750;28;19913;-72
2022/08/13 06:08:24;;;;;;;;;;;23.40;52.00;;;;;;5031933;28;20346;-71
2022/08/13 06:10:50;;;;;;;;;;;22.90;52.80;;;;;;5031151;28;19920;-72
2022/08/13 06:13:16;;;;;;;;;;;23.40;52.40;;;;;;5032098;28;19996;-71
2022/08/13 06:15:43;;;;;;;;;;;23.80;52.00;;;;;;5033325;28;20004;-71
2022/08/13 06:18:09;;;;;;;;;;;23.80;51.60;;;;;;5034653;28;19913;-71
2022/08/13 06:20:35;;;;;;;;;;;24.00;51.20;;;;;;5035594;28;20263;-71
2022/08/13 06:23:03;;;;;;;;;;;23.70;51.80;;;;;;5035164;28;19996;-71
2022/08/13 06:25:31;;;;;;;;;;;23.50;51.80;;;;;;5035493;28;19921;-71
2022/08/13 06:28:00;;;;;;;;;;;23.60;52.20;;;;;;5034865;28;19913;-71
2022/08/13 06:30:28;;;;;;;;;;;23.70;51.30;;;;;;5035477;28;19918;-71
2022/08/13 06:33:01;;;;;;;;;;;24.20;51.00;;;;;;5034805;28;19913;-71
2022/08/13 06:35:28;;;;;;;;;;;24.20;50.90;;;;;;5035440;28;20251;-71
2022/08/13 06:37:54;;;;;;;;;;;23.90;51.20;;;;;;5034744;28;19910;-72
2022/08/13 06:40:21;;;;;;;;;;;24.00;51.60;;;;;;5035072;28;19913;-71
2022/08/13 06:42:48;;;;;;;;;;;24.10;51.00;;;;;;5035281;28;20266;-71
2022/08/13 06:45:15;;;;;;;;;;;24.20;51.10;;;;;;5034386;28;19921;-71
2022/08/13 06:47:42;;;;;;;;;;;23.90;51.30;;;;;;5035145;28;19913;-71
2022/08/13 06:50:10;;;;;;;;;;;23.90;51.50;;;;;;5032647;28;19909;-72
2022/08/13 06:52:37;;;;;;;;;;;24.30;51.30;;;;;;5035114;28;19940;-72
2022/08/13 06:55:04;;;;;;;;;;;24.90;50.10;;;;;;5034032;28;19928;-71
2022/08/13 06:57:30;;;;;;;;;;;25.20;51.10;;;;;;5034638;28;19913;-71
2022/08/13 06:59:57;;;;;;;;;;;26.00;48.60;;;;;;5034038;28;20272;-71
2022/08/13 07:02:24;;;;;;;;;;;25.20;49.30;;;;;;5034709;28;19931;-71
2022/08/13 07:04:51;;;;;;;;;;;25.20;49.10;;;;;;5034701;28;19913;-71
2022/08/13 07:07:18;;;;;;;;;;;25.30;49.40;;;;;;5034588;28;19910;-71
2022/08/13 07:09:44;;;;;;;;;;;25.60;49.90;;;;;;5034529;28;20405;-71
2022/08/13 07:12:12;;;;;;;;;;;26.10;47.80;;;;;;5031889;28;19921;-71
2022/08/13 07:14:42;;;;;;;;;;;25.50;48.60;;;;;;5034478;28;19925;-72
2022/08/13 07:17:10;;;;;;;;;;;25.40;49.10;;;;;;5033745;28;20379;-72
2022/08/13 07:19:37;;;;;;;;;;;25.40;49.10;;;;;;5050254;28;19909;-71
2022/08/13 07:22:03;;;;;;;;;;;25.50;48.80;;;;;;5033952;28;19921;-71
2022/08/13 07:24:29;;;;;;;;;;;25.80;48.50;;;;;;5034283;28;19909;-71
2022/08/13 07:26:59;;;;;;;;;;;25.60;48.30;;;;;;5033409;28;20366;-71
2022/08/13 07:29:28;;;;;;;;;;;26.40;47.80;;;;;;5034555;28;19913;-71
2022/08/13 07:31:54;;;;;;;;;;;26.80;47.40;;;;;;5033465;28;19909;-75
2022/08/13 07:34:21;;;;;;;;;;;27.10;47.00;;;;;;5034231;28;20011;-71
2022/08/13 07:36:49;;;;;;;;;;;27.40;46.90;;;;;;5034621;28;19920;-71
2022/08/13 07:39:16;;;;;;;;;;;26.70;47.50;;;;;;5033662;28;19917;-71
2022/08/13 07:41:45;;;;;;;;;;;27.10;47.00;;;;;;5034101;28;19916;-71
2022/08/13 07:44:29;;;;;;;;;;;26.90;46.70;;;;;;5033276;28;19917;-71
2022/08/13 07:46:57;;;;;;;;;;;27.10;47.50;;;;;;5033292;28;19913;-75
2022/08/13 07:49:24;;;;;;;;;;;27.40;47.20;;;;;;5033850;28;20362;-71
2022/08/13 07:51:51;;;;;;;;;;;27.40;47.60;;;;;;5032859;28;19920;-71
2022/08/13 07:54:17;;;;;;;;;;;27.60;48.20;;;;;;5033054;28;20373;-71
2022/08/13 07:56:48;;;;;;;;;;;28.40;46.70;;;;;;5033655;28;19913;-71
2022/08/13 07:59:18;;;;;;;;;;;28.20;46.60;;;;;;5033153;28;19913;-71
2022/08/13 08:01:46;;;;;;;;;;;28.30;46.10;;;;;;5033728;28;19915;-71
2022/08/13 08:04:13;;;;;;;;;;;28.00;45.90;;;;;;5033024;28;19936;-71
2022/08/13 08:06:40;;;;;;;;;;;27.60;46.20;;;;;;5033386;28;19917;-71
2022/08/13 08:09:08;;;;;;;;;;;27.90;47.00;;;;;;5032659;28;19916;-71
2022/08/13 08:14:19;;;;;;;;;;;27.50;46.30;;;;;;5032622;28;19932;-71
2022/08/13 08:16:48;;;;;;;;;;;28.30;46.90;;;;;;5031454;28;19913;-71
2022/08/13 08:19:14;;;;;;;;;;;28.70;45.30;;;;;;5032445;28;19920;-71
2022/08/13 08:21:40;;;;;;;;;;;28.80;44.70;;;;;;5033362;28;19972;-71
2022/08/13 08:24:06;;;;;;;;;;;28.20;45.10;;;;;;5032805;28;19924;-72
2022/08/13 08:26:34;;;;;;;;;;;29.20;44.20;;;;;;5033174;28;19995;-71
2022/08/13 08:29:03;;;;;;;;;;;29.30;44.30;;;;;;5032675;28;19924;-72
2022/08/13 08:31:29;;;;;;;;;;;31.00;42.60;;;;;;5033267;28;19916;-71
2022/08/13 08:33:56;;;;;;;;;;;30.80;42.30;;;;;;5033203;28;20286;-71
2022/08/13 08:36:25;;;;;;;;;;;29.50;44.10;;;;;;5032331;28;20359;-72
2022/08/13 08:44:30;;;;;;;;;;;30.00;42.50;;;;;;5033300;28;19932;-71
2022/08/13 08:46:57;;;;;;;;;;;30.80;41.80;;;;;;5031816;28;19924;-71
2022/08/13 08:49:24;;;;;;;;;;;31.10;41.30;;;;;;5032739;28;19915;-71
2022/08/13 08:51:51;;;;;;;;;;;30.60;41.80;;;;;;5032633;28;19913;-71
2022/08/13 08:54:22;;;;;;;;;;;31.00;41.30;;;;;;5030817;28;19925;-72
2022/08/13 08:56:48;;;;;;;;;;;30.40;41.60;;;;;;5032681;28;20279;-71
2022/08/13 08:59:15;;;;;;;;;;;30.60;41.70;;;;;;5031603;28;19913;-71
2022/08/13 09:01:44;;;;;;;;;;;30.50;40.60;;;;;;5032830;28;19909;-71
2022/08/13 09:04:12;;;;;;;;;;;30.40;40.80;;;;;;5032190;28;19913;-71
2022/08/13 09:06:38;;;;;;;;;;;31.40;42.60;;;;;;5032680;28;19916;-70
2022/08/13 09:09:07;;;;;;;;;;;31.50;40.30;;;;;;5031931;28;19913;-71
2022/08/13 09:11:36;;;;;;;;;;;31.30;41.00;;;;;;5032584;28;19920;-71
2022/08/13 09:14:05;;;;;;;;;;;30.00;41.80;;;;;;5031872;28;19932;-71
2022/08/13 09:16:32;;;;;;;;;;;30.30;41.20;;;;;;5032150;28;19929;-72
2022/08/13 09:18:59;;;;;;;;;;;30.20;41.50;;;;;;5032646;28;19916;-71
2022/08/13 09:21:25;;;;;;;;;;;30.10;41.10;;;;;;5032124;28;19913;-71
2022/08/13 09:23:52;;;;;;;;;;;30.60;40.70;;;;;;5032241;28;20370;-71
2022/08/13 09:26:20;;;;;;;;;;;30.20;40.40;;;;;;5031855;28;19913;-71
2022/08/13 09:28:47;;;;;;;;;;;31.00;41.60;;;;;;5032412;28;19920;-71
2022/08/13 09:31:13;;;;;;;;;;;31.50;40.20;;;;;;5031832;28;19916;-71
2022/08/13 09:33:39;;;;;;;;;;;30.40;39.50;;;;;;5032411;28;19928;-72
2022/08/13 09:36:07;;;;;;;;;;;30.60;40.10;;;;;;5031467;28;19913;-71
2022/08/13 09:38:34;;;;;;;;;;;29.90;40.50;;;;;;5031068;28;19916;-71
2022/08/13 09:41:11;;;;;;;;;;;30.30;40.30;;;;;;5032463;28;19921;-71
2022/08/13 09:43:39;;;;;;;;;;;31.60;39.90;;;;;;5032484;28;20255;-71
2022/08/13 09:46:06;;;;;;;;;;;31.80;39.90;;;;;;5031798;28;19913;-72
2022/08/13 09:48:32;;;;;;;;;;;31.70;39.20;;;;;;5031905;28;19913;-71
2022/08/13 09:50:58;;;;;;;;;;;31.30;39.30;;;;;;5034448;28;19976;-72
2022/08/13 09:53:25;;;;;;;;;;;31.00;38.80;;;;;;5051170;28;19913;-72
2022/08/13 09:55:52;;;;;;;;;;;31.20;39.30;;;;;;5036296;28;19936;-72
2022/08/13 09:58:18;;;;;;;;;;;31.40;39.50;;;;;;5035306;28;19913;-72
2022/08/13 10:00:47;;;;;;;;;;;31.80;39.20;;;;;;5035812;28;19913;-72
2022/08/13 10:03:17;;;;;;;;;;;31.20;38.40;;;;;;5035317;28;19914;-71
2022/08/13 10:05:44;;;;;;;;;;;30.60;38.70;;;;;;5035870;28;19913;-71
2022/08/13 10:08:15;;;;;;;;;;;29.70;39.50;;;;;;5034126;28;19913;-72
2022/08/13 10:10:42;;;;;;;;;;;29.00;40.20;;;;;;5035156;28;19920;-72
2022/08/13 10:13:08;;;;;;;;;;;28.70;40.20;;;;;;5035008;28;19925;-72
2022/08/13 10:15:34;;;;;;;;;;;29.30;40.70;;;;;;5036012;28;19921;-72
2022/08/13 10:18:02;;;;;;;;;;;29.70;39.60;;;;;;5035948;28;19920;-71
2022/08/13 10:20:29;;;;;;;;;;;29.60;39.10;;;;;;5034931;28;20277;-71
2022/08/13 10:22:58;;;;;;;;;;;29.50;39.20;;;;;;5035781;28;19909;-71
2022/08/13 10:25:25;;;;;;;;;;;29.50;39.10;;;;;;5035103;28;19917;-72
2022/08/13 10:27:52;;;;;;;;;;;28.90;40.10;;;;;;5035253;28;20373;-72
2022/08/13 10:30:18;;;;;;;;;;;29.50;41.60;;;;;;5035060;28;19932;-71
2022/08/13 10:32:46;;;;;;;;;;;29.90;40.00;;;;;;5035337;28;19913;-72
2022/08/13 10:35:12;;;;;;;;;;;29.70;40.10;;;;;;5034542;28;19917;-72
2022/08/13 10:37:42;;;;;;;;;;;29.30;40.50;;;;;;5035503;28;19961;-71
2022/08/13 10:40:08;;;;;;;;;;;29.10;40.70;;;;;;5034583;28;19913;-72
2022/08/13 10:42:34;;;;;;;;;;;29.10;39.40;;;;;;5035583;28;19913;-72
2022/08/13 10:45:00;;;;;;;;;;;28.80;40.10;;;;;;5035373;28;20047;-72
2022/08/13 10:47:26;;;;;;;;;;;29.20;40.90;;;;;;5033715;28;20187;-72
2022/08/13 10:49:52;;;;;;;;;;;29.70;39.50;;;;;;5035551;28;19909;-71
2022/08/13 10:52:20;;;;;;;;;;;29.80;40.00;;;;;;5034244;28;19913;-71
2022/08/13 10:54:47;;;;;;;;;;;29.70;39.40;;;;;;5034723;28;20429;-71
2022/08/13 10:57:14;;;;;;;;;;;28.90;39.30;;;;;;5034307;28;19913;-71
2022/08/13 10:59:41;;;;;;;;;;;28.80;39.60;;;;;;5035154;28;19913;-71
2022/08/13 11:02:07;;;;;;;;;;;28.60;40.10;;;;;;5033763;28;19917;-76
2022/08/13 11:04:36;;;;;;;;;;;28.90;39.80;;;;;;5035060;28;19914;-71
2022/08/13 11:07:03;;;;;;;;;;;29.10;39.30;;;;;;5035061;28;19913;-71
2022/08/13 11:09:29;;;;;;;;;;;29.50;38.90;;;;;;5034735;28;19914;-72
2022/08/13 11:11:58;;;;;;;;;;;29.90;38.80;;;;;;5035010;28;19928;-71
2022/08/13 11:14:25;;;;;;;;;;;30.00;39.30;;;;;;5034081;28;20290;-72
2022/08/13 11:16:59;;;;;;;;;;;29.70;38.10;;;;;;5035844;28;19913;-71
2022/08/13 11:19:27;;;;;;;;;;;29.10;38.90;;;;;;5049360;28;19913;-71
2022/08/13 11:21:54;;;;;;;;;;;29.10;39.60;;;;;;5046753;28;19920;-71
2022/08/13 11:24:20;;;;;;;;;;;29.20;39.00;;;;;;5035460;28;19913;-71
2022/08/13 11:26:47;;;;;;;;;;;29.40;39.20;;;;;;5034775;28;20374;-73
2022/08/13 11:29:13;;;;;;;;;;;29.60;38.70;;;;;;5034227;28;19920;-72
2022/08/13 11:31:39;;;;;;;;;;;29.60;38.80;;;;;;5034805;28;19913;-72
2022/08/13 11:34:05;;;;;;;;;;;29.60;38.20;;;;;;5034018;28;19921;-72
2022/08/13 11:36:32;;;;;;;;;;;29.70;38.70;;;;;;5048540;28;20019;-72
2022/08/13 11:38:58;;;;;;;;;;;30.00;38.60;;;;;;5034618;28;19913;-71
2022/08/13 11:41:24;;;;;;;;;;;30.50;38.90;;;;;;5033810;28;19913;-72
2022/08/13 11:43:53;;;;;;;;;;;30.80;38.20;;;;;;5033835;28;19917;-72
2022/08/13 11:46:20;;;;;;;;;;;30.30;38.20;;;;;;5032270;28;19913;-72
2022/08/13 11:48:47;;;;;;;;;;;29.50;38.20;;;;;;5034325;28;19913;-72
2022/08/13 11:51:13;;;;;;;;;;;29.50;38.70;;;;;;5033373;28;20278;-72
2022/08/13 11:53:39;;;;;;;;;;;29.60;38.40;;;;;;5033822;28;20013;-72
2022/08/13 11:56:05;;;;;;;;;;;29.90;38.60;;;;;;5034053;28;20389;-71
2022/08/13 11:58:33;;;;;;;;;;;30.50;38.70;;;;;;5033023;28;19920;-72
2022/08/13 12:00:59;;;;;;;;;;;30.80;38.10;;;;;;5033764;28;19924;-71
2022/08/13 12:03:26;;;;;;;;;;;30.30;37.80;;;;;;5033364;28;20267;-71
2022/08/13 12:05:52;;;;;;;;;;;30.40;37.70;;;;;;5033731;28;19913;-72
2022/08/13 12:08:19;;;;;;;;;;;30.30;38.20;;;;;;5033266;28;19920;-71
2022/08/13 12:10:46;;;;;;;;;;;30.20;37.90;;;;;;5033625;28;19913;-71
2022/08/13 12:13:12;;;;;;;;;;;30.80;37.60;;;;;;5032418;28;19925;-72
2022/08/13 12:15:38;;;;;;;;;;;31.00;37.60;;;;;;5033539;28;19944;-71
2022/08/13 12:18:04;;;;;;;;;;;30.80;37.70;;;;;;5033607;28;19913;-72
2022/08/13 12:20:30;;;;;;;;;;;30.50;37.80;;;;;;5033057;28;19913;-72
2022/08/13 12:22:57;;;;;;;;;;;30.10;38.40;;;;;;5033569;28;19913;-72
2022/08/13 12:25:24;;;;;;;;;;;29.90;38.30;;;;;;5032920;28;19913;-73
2022/08/13 12:28:05;;;;;;;;;;;29.60;38.60;;;;;;5033435;28;19913;-72
2022/08/13 12:30:31;;;;;;;;;;;29.00;38.70;;;;;;5032802;28;20692;-72
2022/08/13 12:32:57;;;;;;;;;;;29.10;38.80;;;;;;5033254;28;19920;-72
2022/08/13 12:35:23;;;;;;;;;;;28.90;39.30;;;;;;5032326;28;20019;-71
2022/08/13 12:37:49;;;;;;;;;;;29.70;38.80;;;;;;5033173;28;20008;-72
2022/08/13 12:40:15;;;;;;;;;;;29.70;38.70;;;;;;5032340;28;20358;-72
2022/08/13 12:42:41;;;;;;;;;;;29.70;38.20;;;;;;5032670;28;19913;-72
2022/08/13 12:45:09;;;;;;;;;;;30.00;38.20;;;;;;5032964;28;20008;-71
2022/08/13 12:47:35;;;;;;;;;;;30.40;39.00;;;;;;5032356;28;19920;-72
2022/08/13 12:50:02;;;;;;;;;;;30.50;37.40;;;;;;5032753;28;20366;-72
2022/08/13 12:52:28;;;;;;;;;;;30.50;37.40;;;;;;5032136;28;19917;-71
2022/08/13 12:54:54;;;;;;;;;;;30.30;37.50;;;;;;5032546;28;19920;-72
2022/08/13 12:57:20;;;;;;;;;;;30.50;37.20;;;;;;5032205;28;19920;-71
2022/08/13 12:59:46;;;;;;;;;;;30.30;37.40;;;;;;5032926;28;20016;-71
2022/08/13 13:02:12;;;;;;;;;;;30.40;37.60;;;;;;5032975;28;19936;-72
2022/08/13 13:04:41;;;;;;;;;;;30.60;37.30;;;;;;5031872;28;19913;-72
2022/08/13 13:07:07;;;;;;;;;;;30.40;37.50;;;;;;5032731;28;19917;-72
2022/08/13 13:09:33;;;;;;;;;;;30.40;36.80;;;;;;5031903;28;19920;-72
2022/08/13 13:11:59;;;;;;;;;;;30.30;37.00;;;;;;5033004;28;19921;-71
2022/08/13 13:14:25;;;;;;;;;;;30.30;36.30;;;;;;5032216;28;19925;-71
2022/08/13 13:16:51;;;;;;;;;;;30.10;37.30;;;;;;5031815;28;20346;-72
2022/08/13 13:19:17;;;;;;;;;;;30.40;37.40;;;;;;5031994;28;19917;-72
2022/08/13 13:21:44;;;;;;;;;;;30.70;37.00;;;;;;5032586;28;20007;-72
2022/08/13 13:24:12;;;;;;;;;;;31.20;36.10;;;;;;5032058;28;19916;-71
2022/08/13 13:26:38;;;;;;;;;;;31.10;36.60;;;;;;5031779;28;20003;-72
2022/08/13 13:29:04;;;;;;;;;;;30.90;36.40;;;;;;5032342;28;20413;-72
2022/08/13 13:31:30;;;;;;;;;;;30.60;36.40;;;;;;5032091;28;19914;-72
2022/08/13 13:33:56;;;;;;;;;;;30.40;36.30;;;;;;5034194;28;19935;-71
2022/08/13 13:36:22;;;;;;;;;;;30.50;36.50;;;;;;5031850;28;19949;-72
2022/08/13 13:38:48;;;;;;;;;;;30.40;37.00;;;;;;5032589;28;20373;-72
2022/08/13 13:41:14;;;;;;;;;;;30.70;36.40;;;;;;5030928;28;20003;-71
2022/08/13 13:43:40;;;;;;;;;;;30.60;36.60;;;;;;5032492;28;19923;-72
2022/08/13 13:46:06;;;;;;;;;;;30.60;36.50;;;;;;5032443;28;19913;-71
2022/08/13 13:48:33;;;;;;;;;;;30.50;36.60;;;;;;5031435;28;19956;-72
2022/08/13 13:51:00;;;;;;;;;;;30.80;36.70;;;;;;5032477;28;20266;-72
2022/08/13 13:53:28;;;;;;;;;;;30.80;36.20;;;;;;5031747;28;19936;-71
2022/08/13 13:55:54;;;;;;;;;;;30.70;36.60;;;;;;5032162;28;19917;-71
2022/08/13 13:58:21;;;;;;;;;;;30.80;36.70;;;;;;5031452;28;20385;-72
2022/08/13 14:00:47;;;;;;;;;;;30.60;36.40;;;;;;5032072;28;19917;-71
2022/08/13 14:03:14;;;;;;;;;;;30.40;36.70;;;;;;5031713;28;19909;-72
2022/08/13 14:05:40;;;;;;;;;;;30.10;37.40;;;;;;5031526;28;19913;-70
2022/08/13 14:08:07;;;;;;;;;;;30.00;36.80;;;;;;5032055;28;19920;-71
2022/08/13 14:10:33;;;;;;;;;;;30.10;36.90;;;;;;5031560;28;19929;-71
2022/08/13 14:12:59;;;;;;;;;;;30.30;38.00;;;;;;5031736;28;20289;-71
2022/08/13 14:15:27;;;;;;;;;;;30.50;36.70;;;;;;5046544;28;20386;-72
2022/08/13 14:17:56;;;;;;;;;;;30.80;36.80;;;;;;5031973;28;19920;-71
2022/08/13 14:20:23;;;;;;;;;;;31.00;36.20;;;;;;5031270;28;19913;-72
2022/08/13 14:22:52;;;;;;;;;;;30.90;36.40;;;;;;5031883;28;20370;-72
2022/08/13 14:25:18;;;;;;;;;;;30.80;36.30;;;;;;5032001;28;19913;-72
2022/08/13 14:27:45;;;;;;;;;;;31.10;36.10;;;;;;5030928;28;20019;-71
2022/08/13 14:30:11;;;;;;;;;;;30.70;36.30;;;;;;5031690;28;19913;-71
2022/08/13 14:32:38;;;;;;;;;;;30.80;36.30;;;;;;5031382;28;19917;-72
2022/08/13 14:35:08;;;;;;;;;;;30.50;36.00;;;;;;5031629;28;20027;-72
2022/08/13 14:37:35;;;;;;;;;;;30.80;36.30;;;;;;5033963;28;20397;-71
2022/08/13 14:40:04;;;;;;;;;;;30.90;36.30;;;;;;5035165;28;19913;-71